Time;durP1;ratioP1;P1;durP2;ratioP2;P2;SDS_P1;SDS_P2;PMS_P1;PMS_P2;Temp;Humidity;BMP_temperature;BMP_pressure;BME280_temperature;BME280_humidity;BME280_pressure;Samples;Min_cycle;Max_cycle;Signal;HPM_P1;HPM_P2
2020/12/15 00:00:09;;;;;;;48.50;25.53;;;;;;;0.92;79.65;99311.88;126136;1098;104554;-77
2020/12/15 00:02:56;;;;;;;49.43;26.03;;;;;;;0.86;79.89;99316.38;126092;1098;104504;-76
2020/12/15 00:05:23;;;;;;;46.07;24.33;;;;;;;0.84;79.99;99317.31;125923;1100;104586;-77
2020/12/15 00:07:50;;;;;;;50.13;25.60;;;;;;;0.79;80.04;99320.08;126159;1098;104477;-76
2020/12/15 00:10:17;;;;;;;51.85;26.35;;;;;;;0.78;80.04;99323.59;126194;1098;104481;-78
2020/12/15 00:12:46;;;;;;;47.88;26.65;;;;;;;0.82;79.90;99316.50;126169;1098;104414;-77
2020/12/15 00:15:16;;;;;;;48.15;26.17;;;;;;;0.88;80.27;99319.81;126111;1100;104539;-77
2020/12/15 00:17:43;;;;;;;53.07;28.40;;;;;;;0.89;80.53;99326.77;126084;1098;104474;-76
2020/12/15 00:20:12;;;;;;;49.20;26.37;;;;;;;0.94;80.04;99320.55;126100;1098;104542;-77
2020/12/15 00:22:39;;;;;;;52.17;26.47;;;;;;;0.96;79.77;99334.45;126138;1102;104446;-77
2020/12/15 00:25:09;;;;;;;49.50;27.63;;;;;;;0.95;80.10;99324.88;125986;1100;104416;-77
2020/12/15 00:27:36;;;;;;;47.63;24.77;;;;;;;0.94;80.36;99328.41;127001;1101;104504;-77
2020/12/15 00:30:03;;;;;;;55.13;26.87;;;;;;;0.93;79.65;99326.69;125868;1101;104442;-76
2020/12/15 00:32:30;;;;;;;50.15;27.45;;;;;;;0.92;80.25;99322.35;125935;1101;104477;-77
2020/12/15 00:34:58;;;;;;;46.87;24.33;;;;;;;0.92;79.68;99331.05;125841;1101;104932;-77
2020/12/15 00:37:25;;;;;;;46.87;25.67;;;;;;;0.89;80.26;99328.52;125839;1101;104573;-77
2020/12/15 00:39:52;;;;;;;43.33;22.57;;;;;;;0.84;80.24;99318.19;125980;1099;104526;-76
2020/12/15 00:42:19;;;;;;;46.40;24.43;;;;;;;0.83;80.31;99329.56;125994;1093;104419;-77
2020/12/15 00:44:46;;;;;;;52.53;26.57;;;;;;;0.83;80.08;99311.23;126472;1093;104587;-76
2020/12/15 00:47:13;;;;;;;53.28;26.62;;;;;;;0.84;79.74;99312.08;125900;1101;104525;-77
2020/12/15 00:49:43;;;;;;;57.47;30.50;;;;;;;0.86;80.11;99323.37;125920;1100;105063;-77
2020/12/15 00:52:10;;;;;;;56.60;28.97;;;;;;;0.85;79.92;99326.89;125876;1101;104439;-77
2020/12/15 00:54:36;;;;;;;55.20;27.85;;;;;;;0.84;79.59;99328.66;125909;1101;104432;-77
2020/12/15 00:57:07;;;;;;;55.43;27.37;;;;;;;0.84;79.61;99333.02;125983;1100;104574;-75
2020/12/15 00:59:34;;;;;;;54.77;28.13;;;;;;;0.81;80.21;99328.75;125878;1101;104439;-77
2020/12/15 01:02:03;;;;;;;43.03;21.27;;;;;;;0.80;80.01;99328.80;126191;1098;104450;-76
2020/12/15 01:04:30;;;;;;;45.67;23.93;;;;;;;0.78;79.80;99327.98;126150;1098;104464;-77
2020/12/15 01:06:57;;;;;;;46.77;24.23;;;;;;;0.77;80.18;99331.51;126349;1101;104437;-75
2020/12/15 01:09:24;;;;;;;49.43;26.13;;;;;;;0.78;79.84;99334.07;125827;1101;104516;-76
2020/12/15 01:11:51;;;;;;;43.00;21.10;;;;;;;0.78;79.90;99333.23;125885;1101;104445;-75
2020/12/15 01:14:21;;;;;;;46.33;23.47;;;;;;;0.72;79.72;99329.87;125928;1100;104417;-76
2020/12/15 01:17:11;;;;;;;37.57;18.57;;;;;;;0.74;79.71;99329.81;125961;1101;104417;-74
2020/12/15 01:19:41;;;;;;;39.65;20.60;;;;;;;0.69;79.97;99331.70;125895;1101;104413;-76
2020/12/15 01:22:11;;;;;;;42.63;21.80;;;;;;;0.70;79.70;99328.19;125915;1101;104564;-75
2020/12/15 01:24:37;;;;;;;40.40;19.43;;;;;;;0.72;80.20;99334.23;125885;1101;104506;-75
2020/12/15 01:27:05;;;;;;;37.97;18.67;;;;;;;0.72;79.91;99329.87;125912;1101;104411;-76
2020/12/15 01:29:31;;;;;;;34.67;17.17;;;;;;;0.69;79.95;99331.70;126104;1100;104442;-75
2020/12/15 01:32:05;;;;;;;38.13;18.95;;;;;;;0.68;80.26;99335.22;125903;1101;104554;-76
2020/12/15 01:34:32;;;;;;;33.13;17.03;;;;;;;0.67;80.29;99323.03;125852;1101;104512;-75
2020/12/15 01:37:04;;;;;;;29.30;14.50;;;;;;;0.67;79.72;99328.27;125893;1100;104497;-75
2020/12/15 01:39:35;;;;;;;32.50;15.90;;;;;;;0.66;80.12;99326.55;125959;1101;104558;-77
2020/12/15 01:42:02;;;;;;;33.33;15.50;;;;;;;0.65;80.05;99325.70;125868;1101;104471;-77
2020/12/15 01:44:29;;;;;;;32.07;15.50;;;;;;;0.65;80.18;99319.59;125904;1101;104506;-76
2020/12/15 01:46:57;;;;;;;32.43;15.97;;;;;;;0.62;79.86;99317.94;125889;1101;104868;-77
2020/12/15 01:49:27;;;;;;;30.70;14.20;;;;;;;0.61;79.99;99310.14;125987;1101;104417;-76
2020/12/15 01:51:55;;;;;;;29.37;14.83;;;;;;;0.62;80.18;99311.83;125860;1101;104244;-76
2020/12/15 01:54:22;;;;;;;30.97;14.50;;;;;;;0.62;80.16;99304.84;125874;1101;104434;-75
2020/12/15 01:56:49;;;;;;;28.70;13.53;;;;;;;0.63;79.99;99308.31;126077;1101;104506;-76
2020/12/15 01:59:18;;;;;;;28.57;14.38;;;;;;;0.59;80.03;99308.42;126178;1098;104520;-75
2020/12/15 02:01:46;;;;;;;32.90;13.90;;;;;;;0.57;79.82;99302.38;126724;1101;104485;-76
2020/12/15 02:04:15;;;;;;;33.53;16.17;;;;;;;0.59;80.14;99300.57;125888;1101;104436;-76
2020/12/15 02:06:47;;;;;;;30.93;15.90;;;;;;;0.61;80.01;99303.12;126306;1098;104523;-76
2020/12/15 02:09:19;;;;;;;28.50;13.67;;;;;;;0.64;80.03;99308.28;126005;1100;104420;-76
2020/12/15 02:11:49;;;;;;;27.63;13.57;;;;;;;0.66;80.40;99301.25;125958;1101;104519;-76
2020/12/15 02:14:17;;;;;;;25.77;12.70;;;;;;;0.70;80.43;99296.77;125826;1101;104439;-76
2020/12/15 02:16:50;;;;;;;27.43;13.03;;;;;;;0.73;80.39;99296.68;127031;1098;104500;-76
2020/12/15 02:19:18;;;;;;;27.40;14.05;;;;;;;0.75;80.38;99305.34;126024;1098;104561;-75
2020/12/15 02:21:56;;;;;;;26.47;12.47;;;;;;;0.76;80.21;99299.21;126138;1099;104464;-76
2020/12/15 02:24:24;;;;;;;27.07;12.97;;;;;;;0.76;80.35;99304.45;125912;1101;104564;-76
2020/12/15 02:26:54;;;;;;;27.97;13.30;;;;;;;0.80;79.79;99308.70;126086;1099;104419;-76
2020/12/15 02:29:24;;;;;;;26.87;12.73;;;;;;;0.82;80.11;99295.55;125908;1100;104421;-76
2020/12/15 02:31:51;;;;;;;25.83;12.90;;;;;;;0.83;80.44;99308.61;125875;1101;104558;-77
2020/12/15 02:34:18;;;;;;;29.13;13.77;;;;;;;0.83;80.46;99305.12;125894;1101;104420;-76
2020/12/15 02:36:45;;;;;;;24.47;12.13;;;;;;;0.82;80.26;99306.90;126146;1098;104541;-76
2020/12/15 02:39:15;;;;;;;26.93;12.10;;;;;;;0.83;79.92;99303.38;125896;1101;104439;-76
2020/12/15 02:41:58;;;;;;;25.47;11.33;;;;;;;0.82;80.15;99298.16;125911;1100;104422;-76
2020/12/15 02:44:26;;;;;;;25.35;12.45;;;;;;;0.83;80.00;99300.76;126279;1098;104443;-76
2020/12/15 02:46:54;;;;;;;25.63;11.40;;;;;;;0.84;80.23;99304.22;125951;1101;104436;-76
2020/12/15 02:49:22;;;;;;;27.87;12.63;;;;;;;0.85;80.08;99301.57;126563;1100;104475;-76
2020/12/15 02:51:50;;;;;;;24.40;12.00;;;;;;;0.86;79.92;99302.41;125830;1101;104440;-76
2020/12/15 02:54:18;;;;;;;26.63;12.60;;;;;;;0.86;79.98;99295.43;126907;1100;104419;-76
2020/12/15 02:56:45;;;;;;;24.63;11.53;;;;;;;0.87;80.27;99302.39;125882;1093;104924;-77
2020/12/15 02:59:12;;;;;;;24.50;11.20;;;;;;;0.85;80.23;99300.70;125902;1101;104481;-76
2020/12/15 03:01:43;;;;;;;25.45;10.40;;;;;;;0.85;79.99;99293.72;125896;1101;104487;-76
2020/12/15 03:04:15;;;;;;;23.27;10.33;;;;;;;0.86;80.11;99298.05;125837;1101;104542;-75
2020/12/15 03:06:42;;;;;;;25.23;11.40;;;;;;;0.87;80.42;99293.66;125919;1101;104913;-75
2020/12/15 03:09:09;;;;;;;23.10;9.43;;;;;;;0.88;80.56;99303.23;125840;1101;104523;-75
2020/12/15 03:11:37;;;;;;;28.77;12.63;;;;;;;0.86;79.95;99299.80;125909;1101;104666;-76
2020/12/15 03:14:05;;;;;;;29.40;11.77;;;;;;;0.84;80.08;99309.45;125896;1101;105143;-76
2020/12/15 03:16:35;;;;;;;29.87;12.63;;;;;;;0.82;80.19;99313.88;125932;1101;104548;-76
2020/12/15 03:19:03;;;;;;;32.73;14.03;;;;;;;0.83;80.34;99313.85;125884;1101;104414;-74
2020/12/15 03:21:35;;;;;;;25.90;12.13;;;;;;;0.85;80.58;99314.66;125964;1101;104446;-75
2020/12/15 03:24:06;;;;;;;29.75;12.90;;;;;;;0.85;80.46;99319.91;126748;1101;104423;-76
2020/12/15 03:26:37;;;;;;;28.63;13.10;;;;;;;0.89;80.24;99326.77;126368;1101;104560;-76
2020/12/15 03:29:04;;;;;;;27.03;11.37;;;;;;;0.92;80.30;99327.59;125884;1101;104418;-76
2020/12/15 03:31:32;;;;;;;30.57;13.43;;;;;;;0.94;80.08;99328.41;125930;1101;104485;-75
2020/12/15 03:34:02;;;;;;;26.07;11.47;;;;;;;0.93;80.19;99330.15;125874;1101;104423;-75
2020/12/15 03:36:30;;;;;;;27.65;12.35;;;;;;;0.88;80.15;99326.80;125886;1101;104554;-77
2020/12/15 03:38:56;;;;;;;30.07;12.87;;;;;;;0.84;80.10;99335.64;125862;1102;104545;-77
2020/12/15 03:41:23;;;;;;;26.93;12.18;;;;;;;0.83;79.96;99339.16;125856;1101;104482;-76
2020/12/15 03:43:50;;;;;;;29.47;12.73;;;;;;;0.81;80.59;99344.45;125898;1101;104417;-77
2020/12/15 03:46:18;;;;;;;30.23;11.90;;;;;;;0.81;80.23;99338.37;125937;1101;105003;-76
2020/12/15 03:48:49;;;;;;;31.27;13.83;;;;;;;0.80;80.26;99344.52;125968;1101;104420;-77
2020/12/15 03:51:16;;;;;;;27.13;13.13;;;;;;;0.79;80.62;99334.95;125881;1101;104669;-77
2020/12/15 03:53:43;;;;;;;28.20;14.73;;;;;;;0.80;80.10;99341.90;125860;1097;104478;-77
2020/12/15 03:56:11;;;;;;;25.10;11.70;;;;;;;0.75;80.32;99334.16;125910;1101;104551;-75
2020/12/15 03:58:40;;;;;;;23.03;10.20;;;;;;;0.72;80.25;99340.35;126523;1093;104421;-77
2020/12/15 04:01:07;;;;;;;25.55;11.30;;;;;;;0.69;80.26;99335.20;125987;1101;104451;-75
2020/12/15 04:03:35;;;;;;;24.57;11.03;;;;;;;0.67;79.92;99328.27;125845;1101;104548;-75
2020/12/15 04:06:02;;;;;;;27.37;12.75;;;;;;;0.59;80.19;99331.11;126792;1101;104426;-76
2020/12/15 04:08:30;;;;;;;25.60;11.95;;;;;;;0.52;80.14;99334.79;125887;1101;104436;-76
2020/12/15 04:10:57;;;;;;;25.23;12.37;;;;;;;0.46;80.06;99330.59;125920;1101;104920;-76
2020/12/15 04:13:24;;;;;;;28.60;14.75;;;;;;;0.39;80.20;99327.30;125915;1101;104548;-76
2020/12/15 04:15:53;;;;;;;29.27;13.70;;;;;;;0.37;80.13;99330.83;125869;1101;104554;-75
2020/12/15 04:18:20;;;;;;;27.27;13.23;;;;;;;0.36;80.36;99326.50;125808;1101;105055;-75
2020/12/15 04:20:47;;;;;;;29.03;14.57;;;;;;;0.37;80.16;99328.22;125896;1101;104426;-76
2020/12/15 04:23:14;;;;;;;24.67;11.70;;;;;;;0.38;80.30;99330.81;125896;1101;104475;-77
2020/12/15 04:25:52;;;;;;;25.70;12.67;;;;;;;0.40;80.27;99334.24;125924;1101;104535;-76
2020/12/15 04:28:21;;;;;;;25.37;12.27;;;;;;;0.43;79.99;99330.67;125882;1101;104610;-76
2020/12/15 04:30:48;;;;;;;26.53;13.10;;;;;;;0.43;80.38;99336.75;125908;1101;104481;-79
2020/12/15 04:33:23;;;;;;;28.67;13.67;;;;;;;0.41;80.27;99342.94;126148;1101;104429;-76
2020/12/15 04:35:51;;;;;;;26.33;11.93;;;;;;;0.39;80.36;99342.12;125883;1101;104557;-76
2020/12/15 04:38:18;;;;;;;29.35;13.20;;;;;;;0.42;80.32;99345.50;125928;1101;104413;-75
2020/12/15 04:40:44;;;;;;;26.95;12.55;;;;;;;0.46;80.47;99348.04;125883;1101;104596;-76
2020/12/15 04:43:16;;;;;;;25.47;12.23;;;;;;;0.49;80.25;99340.11;125800;1093;104488;-77
2020/12/15 04:45:45;;;;;;;25.93;12.13;;;;;;;0.51;80.67;99343.54;126866;1101;104414;-74
2020/12/15 04:48:21;;;;;;;29.53;13.80;;;;;;;0.52;80.36;99347.88;125901;1101;104554;-76
2020/12/15 04:50:49;;;;;;;29.00;13.55;;;;;;;0.56;80.07;99344.28;125929;1101;104439;-76
2020/12/15 04:53:25;;;;;;;33.13;14.47;;;;;;;0.58;80.60;99351.20;125953;1101;104593;-75
2020/12/15 04:55:56;;;;;;;32.60;14.73;;;;;;;0.57;80.43;99357.34;125834;1100;104483;-76
2020/12/15 04:58:24;;;;;;;30.13;12.57;;;;;;;0.57;80.35;99354.73;125881;1100;104545;-75
2020/12/15 05:00:51;;;;;;;26.53;10.83;;;;;;;0.58;80.26;99361.68;126025;1101;104414;-75
2020/12/15 05:03:31;;;;;;;29.40;13.47;;;;;;;0.60;80.18;99366.86;125883;1100;104423;-76
2020/12/15 05:06:05;;;;;;;32.90;14.20;;;;;;;0.61;80.48;99365.96;125901;1101;104942;-76
2020/12/15 05:08:40;;;;;;;28.20;12.07;;;;;;;0.63;80.25;99363.28;126561;1101;105002;-78
2020/12/15 05:11:07;;;;;;;31.43;14.13;;;;;;;0.63;80.21;99364.16;125898;1101;104434;-80
2020/12/15 05:13:34;;;;;;;29.90;13.37;;;;;;;0.64;80.60;99359.77;125889;1101;104524;-79
2020/12/15 05:16:04;;;;;;;31.67;13.40;;;;;;;0.63;80.29;99358.92;127127;1100;102210;-81
2020/12/15 05:18:31;;;;;;;29.27;13.20;;;;;;;0.64;80.63;99358.02;125916;1101;104446;-80
2020/12/15 05:21:10;;;;;;;26.93;12.90;;;;;;;0.66;80.74;99360.59;125854;1100;104548;-76
2020/12/15 05:23:46;;;;;;;27.20;12.30;;;;;;;0.64;80.44;99365.88;126285;1101;104955;-76
2020/12/15 05:26:22;;;;;;;27.83;13.43;;;;;;;0.61;79.99;99371.20;126001;1098;104410;-75
2020/12/15 05:29:16;;;;;;;30.17;14.97;;;;;;;0.62;80.11;99377.28;126030;1100;104594;-75
2020/12/15 05:31:46;;;;;;;33.13;17.50;;;;;;;0.62;80.22;99375.53;125962;1101;104422;-75
2020/12/15 05:34:26;;;;;;;35.87;17.70;;;;;;;0.63;80.06;99372.02;125852;1101;104551;-76
2020/12/15 05:37:01;;;;;;;31.63;14.57;;;;;;;0.63;80.51;99377.25;125904;1101;104481;-76
2020/12/15 05:39:29;;;;;;;37.97;19.77;;;;;;;0.50;79.88;99376.73;126085;1098;104547;-74
2020/12/15 05:42:09;;;;;;;37.33;20.47;;;;;;;0.38;79.88;99374.42;125934;1101;104522;-74
2020/12/15 05:44:37;;;;;;;38.73;20.40;;;;;;;0.27;79.95;99379.94;125863;1100;104430;-75
2020/12/15 05:47:08;;;;;;;37.93;20.67;;;;;;;0.18;79.89;99377.55;125893;1093;104500;-77
2020/12/15 05:49:41;;;;;;;42.27;23.00;;;;;;;0.03;80.06;99384.87;126270;1101;104545;-75
2020/12/15 05:52:10;;;;;;;45.63;25.80;;;;;;;-0.10;79.95;99381.70;125965;1100;104558;-76
2020/12/15 05:54:38;;;;;;;47.57;27.23;;;;;;;-0.12;79.72;99385.26;125836;1101;104422;-79
2020/12/15 05:57:10;;;;;;;47.83;28.40;;;;;;;-0.11;80.14;99384.36;126091;1098;104535;-78
2020/12/15 05:59:37;;;;;;;43.10;24.30;;;;;;;-0.08;80.23;99392.98;126034;1098;104474;-77
2020/12/15 06:02:14;;;;;;;47.50;26.17;;;;;;;-0.03;80.39;99390.27;125901;1101;104442;-77
2020/12/15 06:04:43;;;;;;;53.10;29.97;;;;;;;-0.01;80.58;99393.72;125858;1101;104480;-78
2020/12/15 06:07:10;;;;;;;73.63;43.27;;;;;;;-0.04;80.19;99393.78;126278;1100;104388;-78
2020/12/15 06:09:37;;;;;;;71.55;41.70;;;;;;;-0.04;80.14;99391.17;125890;1100;104577;-77
2020/12/15 06:12:07;;;;;;;67.57;43.60;;;;;;;-0.02;80.36;99394.61;125961;1098;104577;-77
2020/12/15 06:14:34;;;;;;;66.60;42.45;;;;;;;0.02;80.28;99403.23;126148;1098;104549;-77
2020/12/15 06:17:05;;;;;;;66.03;39.97;;;;;;;0.04;80.14;99399.66;126103;1099;104644;-76
2020/12/15 06:19:34;;;;;;;54.20;31.65;;;;;;;0.03;80.01;99403.17;125917;1098;104535;-77
2020/12/15 06:22:04;;;;;;;67.27;34.50;;;;;;;0.01;79.98;99407.59;126142;1098;104459;-77
2020/12/15 06:24:40;;;;;;;74.03;33.70;;;;;;;0.02;80.08;99403.23;125959;1098;104394;-77
2020/12/15 06:27:11;;;;;;;64.73;32.93;;;;;;;0.03;80.48;99405.80;126053;1093;104439;-77
2020/12/15 06:29:44;;;;;;;116.47;46.23;;;;;;;0.05;80.18;99404.00;126021;1098;104891;-77
2020/12/15 06:32:18;;;;;;;178.87;63.17;;;;;;;0.02;80.13;99404.08;126528;1101;104490;-77
2020/12/15 06:34:51;;;;;;;180.50;63.43;;;;;;;-0.04;79.84;99404.25;125931;1101;104557;-77
2020/12/15 06:37:23;;;;;;;163.20;61.37;;;;;;;-0.04;80.14;99404.25;125903;1100;104416;-77
2020/12/15 06:40:03;;;;;;;163.90;65.30;;;;;;;-0.07;79.57;99396.47;125888;1101;104557;-78
2020/12/15 06:42:30;;;;;;;154.47;66.37;;;;;;;-0.18;79.93;99399.31;127878;1101;102527;-77
2020/12/15 06:45:08;;;;;;;167.45;68.35;;;;;;;-0.26;80.21;99396.89;125881;1101;104413;-78
2020/12/15 06:47:38;;;;;;;138.53;61.60;;;;;;;-0.27;79.80;99410.02;125867;1100;104587;-77
2020/12/15 06:50:11;;;;;;;144.75;67.95;;;;;;;-0.31;79.51;99407.47;125976;1101;104477;-76
2020/12/15 06:52:42;;;;;;;125.60;66.55;;;;;;;-0.31;79.47;99409.20;125905;1101;104417;-78
2020/12/15 06:55:11;;;;;;;115.17;59.40;;;;;;;-0.33;79.99;99414.48;125990;1093;104551;-77
2020/12/15 06:57:40;;;;;;;144.40;69.07;;;;;;;-0.32;80.03;99407.48;125877;1093;104547;-76
2020/12/15 07:00:14;;;;;;;307.97;117.97;;;;;;;-0.34;79.56;99412.76;125913;1101;104739;-77
2020/12/15 07:02:51;;;;;;;241.13;97.43;;;;;;;-0.36;79.50;99413.67;126831;1098;104483;-78
2020/12/15 07:05:28;;;;;;;230.13;95.57;;;;;;;-0.38;80.13;99420.69;126051;1100;104429;-77
2020/12/15 07:07:59;;;;;;;186.93;85.73;;;;;;;-0.38;79.58;99413.72;126196;1098;104430;-76
2020/12/15 07:10:30;;;;;;;201.07;90.03;;;;;;;-0.38;79.74;99415.45;125981;1098;104416;-77
2020/12/15 07:13:01;;;;;;;209.17;100.10;;;;;;;-0.38;79.57;99421.56;125957;1098;104590;-77
2020/12/15 07:15:30;;;;;;;156.03;78.70;;;;;;;-0.37;80.24;99418.05;125873;1093;104448;-77
2020/12/15 07:18:01;;;;;;;150.83;80.53;;;;;;;-0.40;80.04;99409.41;125938;1101;104481;-77
2020/12/15 07:20:29;;;;;;;226.33;104.83;;;;;;;-0.39;79.76;99411.12;125907;1101;104548;-79
2020/12/15 07:22:57;;;;;;;219.93;100.10;;;;;;;-0.46;79.73;99410.41;125887;1101;104506;-78
2020/12/15 07:25:24;;;;;;;218.50;98.50;;;;;;;-0.48;79.42;99410.46;125826;1102;104516;-78
2020/12/15 07:27:51;;;;;;;230.37;98.47;;;;;;;-0.48;80.18;99407.84;125907;1101;104506;-78
2020/12/15 07:30:21;;;;;;;217.00;91.40;;;;;;;-0.48;80.08;99405.23;126125;1100;104406;-76
2020/12/15 07:32:49;;;;;;;211.60;88.63;;;;;;;-0.49;80.03;99402.63;125954;1100;104997;-78
2020/12/15 07:35:25;;;;;;;197.27;86.87;;;;;;;-0.49;79.81;99413.97;126760;1098;104432;-78
2020/12/15 07:37:59;;;;;;;162.37;76.30;;;;;;;-0.48;80.30;99420.03;126174;1100;104419;-79
2020/12/15 07:40:29;;;;;;;173.47;83.43;;;;;;;-0.47;79.57;99422.63;125806;1101;104548;-76
2020/12/15 07:43:00;;;;;;;177.93;89.43;;;;;;;-0.43;80.16;99430.41;126636;1093;104459;-77
2020/12/15 07:45:32;;;;;;;144.40;71.87;;;;;;;-0.40;79.98;99431.19;125919;1100;105562;-75
2020/12/15 07:48:04;;;;;;;143.20;67.10;;;;;;;-0.40;79.61;99428.58;125721;1096;104618;-76
2020/12/15 07:50:35;;;;;;;123.00;59.95;;;;;;;-0.36;79.70;99435.46;126461;1093;104461;-77
2020/12/15 07:53:10;;;;;;;116.27;60.47;;;;;;;-0.29;79.88;99437.94;125765;1100;104837;-85
2020/12/15 07:55:39;;;;;;;147.10;68.25;;;;;;;-0.25;80.08;99434.37;126232;1101;104503;-75
2020/12/15 07:58:16;;;;;;;142.93;67.17;;;;;;;-0.23;80.02;99430.81;126058;1093;104869;-80
2020/12/15 08:00:43;;;;;;;136.10;64.30;;;;;;;-0.23;79.62;99437.81;125951;1093;105073;-80
2020/12/15 08:03:12;;;;;;;159.00;73.73;;;;;;;-0.22;79.68;99431.69;126013;1093;104433;-79
2020/12/15 08:05:41;;;;;;;187.73;88.07;;;;;;;-0.20;79.50;99427.25;127008;1093;104479;-77
2020/12/15 08:08:13;;;;;;;190.83;93.73;;;;;;;-0.18;80.28;99431.57;125750;1093;104551;-77
2020/12/15 08:10:42;;;;;;;206.47;101.00;;;;;;;-0.12;79.78;99441.02;125676;1100;104440;-77
2020/12/15 08:13:11;;;;;;;210.37;105.10;;;;;;;-0.07;79.55;99435.70;126101;1098;104487;-76
2020/12/15 08:15:40;;;;;;;205.17;96.40;;;;;;;-0.03;79.88;99429.50;126129;1098;104615;-77
2020/12/15 08:18:09;;;;;;;184.40;91.10;;;;;;;-0.01;79.97;99435.56;125976;1093;104462;-76
2020/12/15 08:20:41;;;;;;;173.10;89.27;;;;;;;0.03;79.69;99444.19;125912;1093;105262;-77
2020/12/15 08:23:13;;;;;;;175.10;91.13;;;;;;;0.06;79.76;99439.73;125773;1093;104551;-75
2020/12/15 08:25:44;;;;;;;148.33;73.67;;;;;;;0.10;79.92;99432.69;126008;1093;104500;-74
2020/12/15 08:28:14;;;;;;;95.10;47.80;;;;;;;0.18;80.13;99440.34;125732;1093;104542;-76
2020/12/15 08:30:41;;;;;;;86.23;40.60;;;;;;;0.31;80.65;99447.00;125696;1093;104417;-74
2020/12/15 08:33:08;;;;;;;46.10;22.80;;;;;;;0.46;80.63;99445.76;125689;1098;105204;-76
2020/12/15 08:35:36;;;;;;;37.30;17.50;;;;;;;0.75;80.74;99444.14;125522;1101;104500;-79
2020/12/15 08:38:05;;;;;;;27.43;12.60;;;;;;;1.01;80.99;99443.44;125668;1100;104459;-76
2020/12/15 08:40:32;;;;;;;30.97;14.67;;;;;;;1.33;80.87;99448.69;125569;1101;104529;-76
2020/12/15 08:43:02;;;;;;;31.30;14.80;;;;;;;1.61;80.55;99445.24;125602;1093;104481;-81
2020/12/15 08:45:30;;;;;;;30.17;13.57;;;;;;;1.87;80.79;99439.20;125601;1101;104442;-80
2020/12/15 08:47:59;;;;;;;31.67;14.57;;;;;;;2.18;80.35;99429.52;125474;1096;104426;-82
2020/12/15 08:50:31;;;;;;;32.70;14.50;;;;;;;2.45;81.47;99426.88;125611;1101;104531;-77
2020/12/15 08:53:16;;;;;;;30.70;13.83;;;;;;;2.80;81.06;99438.81;125749;1093;104525;-78
2020/12/15 08:55:48;;;;;;;29.60;13.57;;;;;;;3.00;80.68;99428.51;125605;1093;104622;-80
2020/12/15 08:58:18;;;;;;;29.65;12.40;;;;;;;3.21;80.43;99422.45;125689;1096;104488;-77
2020/12/15 09:00:46;;;;;;;28.73;12.37;;;;;;;3.46;80.54;99424.19;125874;1093;104417;-77
2020/12/15 09:03:17;;;;;;;26.70;11.30;;;;;;;3.73;81.10;99424.04;125617;1093;103293;-78
2020/12/15 09:05:53;;;;;;;25.10;11.37;;;;;;;4.09;80.76;99418.23;125863;1093;104803;-78
2020/12/15 09:08:24;;;;;;;27.63;11.03;;;;;;;4.57;80.31;99420.68;126296;1098;104548;-83
2020/12/15 09:10:54;;;;;;;22.97;10.87;;;;;;;4.96;79.89;99432.19;126213;1098;104544;-75
2020/12/15 09:13:23;;;;;;;23.47;10.83;;;;;;;5.28;79.49;99427.30;126229;1100;104442;-76
2020/12/15 09:15:57;;;;;;;25.23;10.40;;;;;;;5.54;79.25;99426.07;126027;1101;104443;-76
2020/12/15 09:18:30;;;;;;;23.40;10.70;;;;;;;5.84;79.56;99420.30;126289;1100;104832;-77
2020/12/15 09:21:14;;;;;;;21.70;9.65;;;;;;;6.08;79.36;99412.16;126056;1094;104542;-78
2020/12/15 09:23:59;;;;;;;20.97;8.73;;;;;;;6.25;79.86;99416.61;126040;1093;104448;-76
2020/12/15 09:26:27;;;;;;;22.33;9.50;;;;;;;6.27;79.02;99406.82;126004;1101;104506;-75
2020/12/15 09:29:08;;;;;;;23.23;9.90;;;;;;;6.37;79.69;99408.08;126253;1098;104519;-81
2020/12/15 09:31:39;;;;;;;23.07;10.13;;;;;;;6.44;79.84;99410.42;125938;1093;104436;-79
2020/12/15 09:34:07;;;;;;;23.87;11.27;;;;;;;6.40;79.56;99407.93;125918;1100;104474;-79
2020/12/15 09:36:36;;;;;;;25.30;11.90;;;;;;;6.45;79.32;99407.69;125911;1101;104549;-78
2020/12/15 09:39:04;;;;;;;23.20;10.40;;;;;;;6.50;79.34;99408.31;126069;1096;104411;-78
2020/12/15 09:41:36;;;;;;;24.30;10.90;;;;;;;6.50;79.28;99404.83;126270;1098;105607;-80
2020/12/15 09:44:03;;;;;;;23.63;10.63;;;;;;;6.58;79.38;99407.08;126103;1098;104462;-80
2020/12/15 09:46:31;;;;;;;22.20;10.60;;;;;;;6.64;79.50;99407.61;125897;1101;104414;-79
2020/12/15 09:48:59;;;;;;;22.43;10.67;;;;;;;6.69;79.35;99397.66;125709;1093;104557;-80
2020/12/15 09:51:26;;;;;;;25.27;12.47;;;;;;;6.66;79.36;99395.17;125377;1093;104561;-79
2020/12/15 09:53:53;;;;;;;21.80;10.00;;;;;;;6.53;79.00;99392.30;125543;1094;104515;-78
2020/12/15 09:56:20;;;;;;;23.27;11.17;;;;;;;6.46;79.74;99393.54;125526;1099;104542;-79
2020/12/15 09:58:48;;;;;;;21.97;9.93;;;;;;;6.37;78.98;99397.52;125368;1100;104421;-79
2020/12/15 10:01:20;;;;;;;26.33;11.30;;;;;;;6.34;79.17;99402.08;125452;1098;104407;-79
2020/12/15 10:03:47;;;;;;;23.33;10.93;;;;;;;6.34;79.17;99405.59;125463;1093;104542;-80
2020/12/15 10:06:15;;;;;;;24.90;10.97;;;;;;;6.38;79.60;99401.86;125436;1100;104410;-80
2020/12/15 10:08:44;;;;;;;23.07;11.10;;;;;;;6.38;79.49;99400.99;125743;1098;104528;-79
2020/12/15 10:11:15;;;;;;;23.03;9.80;;;;;;;6.38;79.85;99399.22;125684;1093;104499;-78
2020/12/15 10:13:43;;;;;;;21.53;9.30;;;;;;;6.40;79.33;99407.93;125641;1093;104464;-79
2020/12/15 10:16:13;;;;;;;23.40;9.60;;;;;;;6.40;79.85;99394.72;125906;1098;105099;-79
2020/12/15 10:18:40;;;;;;;23.73;9.90;;;;;;;6.45;79.51;99390.99;125765;1101;104438;-80
2020/12/15 10:21:07;;;;;;;22.33;10.43;;;;;;;6.51;79.65;99399.45;125673;1101;104634;-80
2020/12/15 10:23:37;;;;;;;22.67;10.20;;;;;;;6.58;79.07;99404.44;125786;1098;104571;-76
2020/12/15 10:26:05;;;;;;;22.85;10.20;;;;;;;6.61;79.80;99396.34;125678;1101;104458;-80
2020/12/15 10:28:33;;;;;;;22.27;10.17;;;;;;;6.64;79.71;99396.20;125770;1100;104551;-79
2020/12/15 10:31:01;;;;;;;22.13;10.20;;;;;;;6.69;79.71;99394.17;125714;1093;104439;-77
2020/12/15 10:33:30;;;;;;;23.77;10.43;;;;;;;6.77;79.06;99391.96;125988;1093;102941;-80
2020/12/15 10:36:05;;;;;;;22.33;9.80;;;;;;;6.89;79.62;99400.20;125910;1093;104500;-77
2020/12/15 10:38:34;;;;;;;21.23;9.70;;;;;;;6.89;79.37;99393.14;125892;1093;104421;-81
2020/12/15 10:41:09;;;;;;;21.30;9.63;;;;;;;6.91;79.18;99396.56;125850;1093;104573;-82
2020/12/15 10:43:38;;;;;;;20.55;8.80;;;;;;;6.95;79.30;99395.44;126068;1093;104408;-79
2020/12/15 10:46:25;;;;;;;19.90;8.87;;;;;;;6.93;78.73;99401.75;125828;1093;104573;-79
2020/12/15 10:48:52;;;;;;;21.20;8.60;;;;;;;6.83;78.58;99396.94;126001;1098;104446;-77
2020/12/15 10:51:21;;;;;;;22.13;8.83;;;;;;;6.83;78.91;99404.87;125824;1093;104424;-78
2020/12/15 10:53:48;;;;;;;21.73;9.17;;;;;;;6.81;78.75;99398.80;126021;1093;104491;-77
2020/12/15 10:56:15;;;;;;;21.30;8.87;;;;;;;6.80;78.59;99396.25;125874;1098;104877;-79
2020/12/15 10:58:44;;;;;;;20.30;8.70;;;;;;;6.81;79.15;99396.16;125865;1094;104430;-77
2020/12/15 11:01:11;;;;;;;20.88;7.90;;;;;;;6.80;78.41;99407.67;125819;1101;104590;-79
2020/12/15 11:03:41;;;;;;;21.60;8.50;;;;;;;6.82;79.21;99389.94;125839;1093;104484;-77
2020/12/15 11:06:08;;;;;;;19.27;7.57;;;;;;;6.85;78.79;99405.64;125801;1102;104481;-77
2020/12/15 11:08:35;;;;;;;19.40;7.83;;;;;;;6.81;78.40;99398.80;125835;1093;104416;-74
2020/12/15 11:11:02;;;;;;;19.27;7.97;;;;;;;6.77;78.94;99399.89;125883;1100;104589;-77
2020/12/15 11:13:29;;;;;;;18.80;7.50;;;;;;;6.75;78.17;99406.21;125575;1093;104477;-76
2020/12/15 11:15:58;;;;;;;20.00;8.10;;;;;;;6.62;77.95;99403.34;125822;1101;104497;-78
2020/12/15 11:18:28;;;;;;;21.30;8.83;;;;;;;6.45;77.91;99405.05;125741;1101;104509;-82